Time;durP1;ratioP1;P1;durP2;ratioP2;P2;SDS_P1;SDS_P2;PMS_P1;PMS_P2;Temp;Humidity;BMP_temperature;BMP_pressure;BME280_temperature;BME280_humidity;BME280_pressure;Samples;Min_cycle;Max_cycle;Signal;HPM_P1;HPM_P2
2021/06/04 00:01:35;;;;;;;3.75;3.20;;;16.90;99.90;;;;;;5072211;28;20032;-74
2021/06/04 00:04:04;;;;;;;2.70;2.42;;;16.90;99.90;;;;;;5072520;28;20036;-70
2021/06/04 00:06:32;;;;;;;3.83;2.60;;;16.90;99.90;;;;;;5071153;28;20032;-74
2021/06/04 00:08:59;;;;;;;3.35;2.95;;;16.80;99.90;;;;;;5071844;28;20347;-69
2021/06/04 00:11:38;;;;;;;4.57;2.88;;;16.80;99.90;;;;;;5071939;28;20024;-69
2021/06/04 00:14:12;;;;;;;3.00;2.70;;;16.80;99.90;;;;;;5063652;28;20059;-69
2021/06/04 00:17:08;;;;;;;3.20;2.90;;;16.80;99.90;;;;;;5070861;28;20327;-69
2021/06/04 00:19:37;;;;;;;3.92;2.95;;;16.70;99.90;;;;;;5063288;28;20028;-70
2021/06/04 00:22:16;;;;;;;2.90;2.60;;;16.70;99.90;;;;;;5071969;28;20105;-69
2021/06/04 00:24:56;;;;;;;4.60;3.33;;;16.70;99.90;;;;;;5071093;28;20060;-69
2021/06/04 00:27:49;;;;;;;6.85;3.03;;;16.60;99.90;;;;;;5071693;28;20031;-69
2021/06/04 00:30:26;;;;;;;3.25;2.55;;;16.60;99.90;;;;;;5064511;28;20047;-69
2021/06/04 00:33:14;;;;;;;3.53;3.20;;;16.60;99.90;;;;;;5070804;28;20575;-69
2021/06/04 00:35:45;;;;;;;4.85;3.28;;;16.60;99.90;;;;;;5064982;28;20068;-69
2021/06/04 00:38:17;;;;;;;3.60;2.80;;;16.60;99.90;;;;;;5071591;28;20383;-69
2021/06/04 00:40:49;;;;;;;4.38;3.22;;;16.50;99.90;;;;;;5070637;28;20039;-69
2021/06/04 00:43:32;;;;;;;3.72;2.83;;;16.50;99.90;;;;;;5071856;28;20469;-69
2021/06/04 00:46:10;;;;;;;3.00;2.70;;;16.50;99.90;;;;;;5064647;28;20461;-69
2021/06/04 00:48:36;;;;;;;3.35;3.05;;;16.40;99.90;;;;;;5071036;28;20033;-71
2021/06/04 00:51:41;;;;;;;3.60;2.88;;;16.40;99.90;;;;;;5071579;28;20048;-71
2021/06/04 00:54:09;;;;;;;2.72;2.53;;;16.40;99.90;;;;;;5064265;28;20127;-71
2021/06/04 00:57:00;;;;;;;3.47;3.17;;;16.30;99.90;;;;;;5069857;28;20045;-69
2021/06/04 00:59:36;;;;;;;3.58;3.13;;;16.30;99.90;;;;;;5066012;28;20431;-69
2021/06/04 01:02:10;;;;;;;5.90;3.30;;;16.30;99.90;;;;;;5071382;28;20024;-69
2021/06/04 01:04:51;;;;;;;4.57;3.35;;;16.20;99.90;;;;;;5070306;28;20029;-69
2021/06/04 01:07:27;;;;;;;5.20;3.28;;;16.30;99.90;;;;;;5066956;28;20032;-69
2021/06/04 01:10:26;;;;;;;3.33;2.97;;;16.20;99.90;;;;;;5070536;28;20032;-69
2021/06/04 01:12:51;;;;;;;7.55;3.55;;;16.20;99.90;;;;;;5062895;28;20024;-69
2021/06/04 01:15:32;;;;;;;3.85;2.88;;;16.20;99.90;;;;;;5070573;28;20102;-69
2021/06/04 01:18:40;;;;;;;3.30;3.00;;;16.20;99.90;;;;;;5071033;28;20481;-71
2021/06/04 01:21:26;;;;;;;3.55;3.08;;;16.20;99.90;;;;;;5022877;28;20155;-69
2021/06/04 01:24:04;;;;;;;3.42;3.13;;;16.10;99.90;;;;;;5035487;28;20485;-69
2021/06/04 01:26:37;;;;;;;3.95;3.55;;;16.10;99.90;;;;;;5070260;28;20146;-74
2021/06/04 01:29:17;;;;;;;4.88;3.70;;;16.10;99.90;;;;;;5071126;28;20024;-70
2021/06/04 01:31:56;;;;;;;3.35;3.05;;;16.10;99.90;;;;;;5070399;28;20050;-69
2021/06/04 01:34:29;;;;;;;3.60;3.30;;;16.10;99.90;;;;;;5070292;28;20570;-70
2021/06/04 01:37:20;;;;;;;4.18;3.30;;;16.10;99.90;;;;;;5070587;28;20027;-71
2021/06/04 01:40:02;;;;;;;3.70;3.40;;;16.00;99.90;;;;;;5069911;28;20033;-71
2021/06/04 01:42:58;;;;;;;4.22;3.40;;;16.00;99.90;;;;;;5070656;28;20033;-69
2021/06/04 01:45:32;;;;;;;3.75;3.45;;;16.00;99.90;;;;;;5064864;28;20500;-69
2021/06/04 01:48:04;;;;;;;3.95;3.33;;;16.00;99.90;;;;;;5070714;28;20024;-69
2021/06/04 01:50:47;;;;;;;3.83;3.08;;;15.90;99.90;;;;;;5070137;28;20539;-74
2021/06/04 01:53:19;;;;;;;4.22;3.55;;;15.90;99.90;;;;;;5070853;28;20390;-69
2021/06/04 01:56:12;;;;;;;;;;;;;;;;;;;;;
2021/06/04 01:59:04;;;;;;;4.82;2.78;;;15.90;99.90;;;;;;5063483;28;20393;-71
2021/06/04 02:01:36;;;;;;;3.22;2.97;;;15.80;99.90;;;;;;5065098;28;20473;-74
2021/06/04 02:04:30;;;;;;;3.83;3.03;;;15.80;99.90;;;;;;5069689;28;20049;-68
2021/06/04 02:06:59;;;;;;;3.33;3.00;;;15.80;99.90;;;;;;5057494;28;20531;-69
2021/06/04 02:09:28;;;;;;;4.50;3.50;;;15.80;99.90;;;;;;5066207;28;20017;-68
2021/06/04 02:12:05;;;;;;;5.93;3.67;;;15.70;99.90;;;;;;5062595;28;20025;-68
2021/06/04 02:14:43;;;;;;;4.28;3.65;;;15.70;99.90;;;;;;5063994;28;20025;-74
2021/06/04 02:17:50;;;;;;;5.53;4.22;;;15.70;99.90;;;;;;5065468;28;20032;-68
2021/06/04 02:20:29;;;;;;;8.82;4.38;;;15.70;99.90;;;;;;4968412;28;20480;-68
2021/06/04 02:23:06;;;;;;;4.15;3.75;;;15.70;99.90;;;;;;5065257;28;20037;-69
2021/06/04 02:25:45;;;;;;;5.70;4.20;;;15.70;99.90;;;;;;5063616;28;20024;-75
2021/06/04 02:28:18;;;;;;;4.47;3.83;;;15.80;99.90;;;;;;5065357;28;20025;-69
2021/06/04 02:31:09;;;;;;;5.53;3.53;;;15.80;99.90;;;;;;5061250;28;20036;-70
2021/06/04 02:34:13;;;;;;;4.70;3.78;;;15.80;99.90;;;;;;5047241;28;20044;-70
2021/06/04 02:37:07;;;;;;;4.95;3.55;;;15.80;99.90;;;;;;5059181;28;20111;-70
2021/06/04 02:40:23;;;;;;;4.05;3.47;;;15.80;99.90;;;;;;5045032;28;20025;-74
2021/06/04 02:43:07;;;;;;;9.48;3.95;;;15.80;99.90;;;;;;4986483;28;20677;-69
2021/06/04 02:45:55;;;;;;;4.72;3.97;;;15.80;99.90;;;;;;5072859;28;20021;-74
2021/06/04 02:48:26;;;;;;;4.47;3.55;;;15.80;99.90;;;;;;5073629;28;20065;-69
2021/06/04 02:51:24;;;;;;;5.70;4.45;;;15.70;99.90;;;;;;5072325;28;20068;-69
2021/06/04 02:54:06;;;;;;;5.43;4.63;;;15.80;99.90;;;;;;5063527;28;20052;-69
2021/06/04 02:56:57;;;;;;;4.88;4.30;;;15.80;99.90;;;;;;5073415;28;20040;-73
2021/06/04 02:59:33;;;;;;;6.55;4.70;;;15.70;99.90;;;;;;5073487;28;20032;-69
2021/06/04 03:02:21;;;;;;;6.93;4.88;;;15.70;99.90;;;;;;5072437;28;20422;-69
2021/06/04 03:04:57;;;;;;;6.60;5.00;;;15.80;99.90;;;;;;5071686;28;20351;-70
2021/06/04 03:07:37;;;;;;;5.63;4.70;;;15.80;99.90;;;;;;5073382;28;20092;-69
2021/06/04 03:10:25;;;;;;;6.22;4.43;;;15.70;99.90;;;;;;5066775;28;20032;-69
2021/06/04 03:12:52;;;;;;;6.07;4.63;;;15.80;99.90;;;;;;5072180;28;20085;-69
2021/06/04 03:16:00;;;;;;;4.22;3.83;;;15.70;99.90;;;;;;5064453;28;20128;-69
2021/06/04 03:18:29;;;;;;;6.95;4.47;;;15.70;99.90;;;;;;5071964;28;20040;-69
2021/06/04 03:20:55;;;;;;;5.00;4.38;;;15.70;99.90;;;;;;5072124;28;20522;-69
2021/06/04 03:23:36;;;;;;;7.38;5.20;;;15.60;99.90;;;;;;5072607;28;20033;-70
2021/06/04 03:26:15;;;;;;;5.35;4.75;;;15.60;99.90;;;;;;5072796;28;20029;-70
2021/06/04 03:28:45;;;;;;;6.82;5.32;;;15.60;99.90;;;;;;5054576;28;20416;-70
2021/06/04 03:31:23;;;;;;;5.93;4.97;;;15.60;99.90;;;;;;5072250;28;20032;-70
2021/06/04 03:33:57;;;;;;;5.10;4.60;;;15.60;99.90;;;;;;5071974;28;20033;-70
2021/06/04 03:36:55;;;;;;;5.30;4.60;;;15.50;99.90;;;;;;5073259;28;20056;-69
2021/06/04 03:39:29;;;;;;;5.50;5.00;;;15.50;99.90;;;;;;5071887;28;20041;-69
2021/06/04 03:41:59;;;;;;;5.00;4.47;;;15.50;99.90;;;;;;5071838;28;20036;-69
2021/06/04 03:44:28;;;;;;;5.25;4.75;;;15.50;99.90;;;;;;5072332;28;20048;-71
2021/06/04 03:46:54;;;;;;;5.28;4.78;;;15.50;99.90;;;;;;5071792;28;20116;-70
2021/06/04 03:49:22;;;;;;;9.40;5.38;;;15.50;99.90;;;;;;5072583;28;20028;-70
2021/06/04 03:52:00;;;;;;;5.70;5.20;;;15.60;99.90;;;;;;5063548;28;20120;-69
2021/06/04 03:54:39;;;;;;;5.00;4.50;;;15.60;99.90;;;;;;5072429;28;20048;-69
2021/06/04 03:57:09;;;;;;;5.45;4.90;;;15.60;99.90;;;;;;5066001;28;20028;-69
2021/06/04 03:59:35;;;;;;;5.05;4.53;;;15.70;99.90;;;;;;5072270;28;20040;-74
2021/06/04 04:02:05;;;;;;;6.13;5.47;;;15.70;99.90;;;;;;5071302;28;20033;-69
2021/06/04 04:04:31;;;;;;;5.30;4.80;;;15.70;99.90;;;;;;5071125;28;20477;-69
2021/06/04 04:06:57;;;;;;;5.22;4.72;;;15.80;99.90;;;;;;5071398;28;20710;-69
2021/06/04 04:09:23;;;;;;;6.80;5.10;;;15.80;99.90;;;;;;5071938;28;20029;-69
2021/06/04 04:11:51;;;;;;;5.85;5.00;;;15.90;99.90;;;;;;5071146;28;20056;-69
2021/06/04 04:14:18;;;;;;;7.85;4.78;;;16.00;99.90;;;;;;5054097;28;20028;-69
2021/06/04 04:16:43;;;;;;;7.28;5.20;;;16.00;99.90;;;;;;5070745;28;20100;-70
2021/06/04 04:19:09;;;;;;;5.90;4.80;;;16.10;99.90;;;;;;5071508;28;20128;-69
2021/06/04 04:21:37;;;;;;;5.95;5.22;;;16.20;99.90;;;;;;5072031;28;20099;-75
2021/06/04 04:24:10;;;;;;;6.55;5.00;;;16.30;99.90;;;;;;5071512;28;20028;-72
2021/06/04 04:26:37;;;;;;;4.93;4.30;;;16.40;99.90;;;;;;5071700;28;20020;-74
2021/06/04 04:29:03;;;;;;;6.20;4.68;;;16.50;99.90;;;;;;5071210;28;20086;-69
2021/06/04 04:31:32;;;;;;;5.03;4.50;;;16.70;99.90;;;;;;5071335;28;20035;-69
2021/06/04 04:33:59;;;;;;;5.15;4.47;;;16.90;99.90;;;;;;5069853;28;20031;-70
2021/06/04 04:36:36;;;;;;;5.90;4.97;;;17.00;99.90;;;;;;5071511;28;20031;-70
2021/06/04 04:39:08;;;;;;;5.82;4.82;;;17.20;99.90;;;;;;5071108;28;20064;-70
2021/06/04 04:41:33;;;;;;;9.05;4.95;;;17.40;99.90;;;;;;5034460;28;20033;-69
2021/06/04 04:43:59;;;;;;;7.78;5.25;;;17.60;99.90;;;;;;5051926;28;20041;-69
2021/06/04 04:46:28;;;;;;;8.60;5.18;;;17.70;99.90;;;;;;5071356;28;20035;-69
2021/06/04 04:48:54;;;;;;;6.97;5.10;;;17.80;99.90;;;;;;5070789;28;20085;-69
2021/06/04 04:51:20;;;;;;;8.68;5.18;;;17.90;99.90;;;;;;5071293;28;20520;-69
2021/06/04 04:53:46;;;;;;;7.43;5.07;;;18.00;99.90;;;;;;5070592;28;20029;-69
2021/06/04 04:56:12;;;;;;;6.78;5.00;;;18.10;99.90;;;;;;5071083;28;20035;-70
2021/06/04 04:58:38;;;;;;;6.35;4.80;;;18.20;99.90;;;;;;5071432;28;20065;-74
2021/06/04 05:01:07;;;;;;;10.73;5.60;;;18.20;99.90;;;;;;5071297;28;20024;-69
2021/06/04 05:03:33;;;;;;;4.75;4.35;;;18.30;99.90;;;;;;5071354;28;20033;-69
2021/06/04 05:05:59;;;;;;;7.45;5.63;;;18.30;99.90;;;;;;5070516;28;20099;-69
2021/06/04 05:08:24;;;;;;;5.85;5.18;;;18.30;99.90;;;;;;5070231;28;20142;-69
2021/06/04 05:10:50;;;;;;;6.03;5.07;;;18.40;99.90;;;;;;5070505;28;20024;-69
2021/06/04 05:13:18;;;;;;;5.57;4.45;;;18.40;99.90;;;;;;5071629;28;20032;-69
2021/06/04 05:15:44;;;;;;;5.97;5.40;;;18.40;99.90;;;;;;5066892;28;20024;-69
2021/06/04 05:18:13;;;;;;;5.70;4.97;;;18.50;99.90;;;;;;5070963;28;20393;-69
2021/06/04 05:20:41;;;;;;;4.88;4.38;;;18.60;99.90;;;;;;5070372;28;20032;-74
2021/06/04 05:23:07;;;;;;;6.20;4.80;;;18.60;99.90;;;;;;5071213;28;20075;-69
2021/06/04 05:25:37;;;;;;;6.57;5.35;;;18.70;99.90;;;;;;5070667;28;20123;-69
2021/06/04 05:28:05;;;;;;;5.85;5.28;;;18.80;99.90;;;;;;5071004;28;20482;-69
2021/06/04 05:30:34;;;;;;;7.20;5.32;;;19.00;99.90;;;;;;5071316;28;20044;-69
2021/06/04 05:33:00;;;;;;;6.20;5.15;;;19.20;99.90;;;;;;5070380;28;20094;-69
2021/06/04 05:35:28;;;;;;;6.28;4.75;;;19.20;99.90;;;;;;5070769;28;20036;-69
2021/06/04 05:37:54;;;;;;;7.70;4.78;;;19.20;99.90;;;;;;5070364;28;20040;-70
2021/06/04 05:40:34;;;;;;;5.47;4.82;;;19.10;99.90;;;;;;5070879;28;20033;-69
2021/06/04 05:43:01;;;;;;;6.55;5.25;;;19.10;99.90;;;;;;5074414;28;20032;-69
2021/06/04 05:45:30;;;;;;;5.43;4.43;;;19.20;99.90;;;;;;5074747;28;20039;-69
2021/06/04 05:47:56;;;;;;;4.85;4.35;;;19.40;99.90;;;;;;5074201;28;20032;-69
2021/06/04 05:50:27;;;;;;;5.20;4.50;;;19.60;99.90;;;;;;5071284;28;20032;-70
2021/06/04 05:52:52;;;;;;;4.40;4.00;;;19.80;99.90;;;;;;5074736;28;20107;-70
2021/06/04 05:55:22;;;;;;;5.45;4.75;;;19.90;99.90;;;;;;5075277;28;20162;-69
2021/06/04 05:57:48;;;;;;;6.65;4.78;;;20.10;99.90;;;;;;5073557;28;20102;-69
2021/06/04 06:00:29;;;;;;;5.18;4.47;;;20.40;99.90;;;;;;5074818;28;20533;-71
2021/06/04 06:02:57;;;;;;;8.52;5.55;;;20.60;99.90;;;;;;5073585;28;20052;-68
2021/06/04 06:05:22;;;;;;;10.40;5.22;;;20.70;99.90;;;;;;5074286;28;20032;-70
2021/06/04 06:07:48;;;;;;;6.20;4.82;;;20.80;99.70;;;;;;5073382;28;20354;-72
2021/06/04 06:10:14;;;;;;;7.90;5.10;;;20.80;99.90;;;;;;5074119;28;20036;-73
2021/06/04 06:12:40;;;;;;;7.45;5.03;;;20.80;99.40;;;;;;5065898;28;20036;-75
2021/06/04 06:15:08;;;;;;;6.75;5.50;;;20.90;99.30;;;;;;5073706;28;20107;-72
2021/06/04 06:17:34;;;;;;;5.30;4.80;;;20.90;99.90;;;;;;5074007;28;20477;-73
2021/06/04 06:20:00;;;;;;;9.80;5.18;;;21.00;99.40;;;;;;5073167;28;20048;-68
2021/06/04 06:22:26;;;;;;;8.45;5.07;;;21.10;98.40;;;;;;5073846;28;20115;-69
2021/06/04 06:24:51;;;;;;;5.30;4.47;;;21.20;99.00;;;;;;5073846;28;20146;-71
2021/06/04 06:27:18;;;;;;;8.48;5.22;;;21.30;98.80;;;;;;5073783;28;20424;-71
2021/06/04 06:29:44;;;;;;;5.18;4.68;;;21.40;96.80;;;;;;5072914;28;20025;-72
2021/06/04 06:32:12;;;;;;;8.35;4.78;;;21.50;96.40;;;;;;5074341;28;20035;-68
2021/06/04 06:34:38;;;;;;;6.07;4.93;;;21.70;94.50;;;;;;5073653;28;20029;-72
2021/06/04 06:37:04;;;;;;;4.53;4.13;;;21.80;94.50;;;;;;5050542;28;20033;-72
2021/06/04 06:39:33;;;;;;;4.90;4.40;;;21.90;94.20;;;;;;5071718;28;20417;-70
2021/06/04 06:42:02;;;;;;;7.15;4.00;;;22.00;93.80;;;;;;5073909;28;20446;-69
2021/06/04 06:44:28;;;;;;;6.72;4.00;;;22.10;92.90;;;;;;5074163;28;20059;-69
2021/06/04 06:46:55;;;;;;;5.68;4.32;;;22.20;91.70;;;;;;5073631;28;20473;-69
2021/06/04 06:49:22;;;;;;;4.10;3.70;;;22.20;91.80;;;;;;5069201;28;20119;-70
2021/06/04 06:51:49;;;;;;;4.95;3.70;;;22.10;92.00;;;;;;5068623;28;20140;-70
2021/06/04 06:54:19;;;;;;;4.55;3.30;;;22.10;91.30;;;;;;5066086;28;20048;-70
2021/06/04 06:56:47;;;;;;;4.75;3.20;;;22.10;91.10;;;;;;5072085;28;20047;-70
2021/06/04 06:59:13;;;;;;;4.40;3.38;;;22.10;90.90;;;;;;5073657;28;20461;-70
2021/06/04 07:01:40;;;;;;;4.95;3.67;;;22.10;90.20;;;;;;5073008;28;20040;-70
2021/06/04 07:04:06;;;;;;;4.03;3.65;;;22.00;91.10;;;;;;5073017;28;20115;-70
2021/06/04 07:06:35;;;;;;;3.58;3.10;;;22.00;91.60;;;;;;5052073;28;20104;-70
2021/06/04 07:09:04;;;;;;;3.08;2.75;;;22.10;90.70;;;;;;5069096;28;20120;-70
2021/06/04 07:11:35;;;;;;;3.30;2.70;;;22.10;90.10;;;;;;5073478;28;20035;-70
2021/06/04 07:14:02;;;;;;;5.75;3.70;;;22.10;90.00;;;;;;5072319;28;20145;-71
2021/06/04 07:16:27;;;;;;;4.88;3.50;;;22.10;89.00;;;;;;5064968;28;20036;-69
2021/06/04 07:18:53;;;;;;;6.07;3.55;;;22.20;87.20;;;;;;5072502;28;20112;-70
2021/06/04 07:21:22;;;;;;;3.60;3.30;;;22.20;86.30;;;;;;5067026;28;20403;-73
2021/06/04 07:23:48;;;;;;;4.43;2.70;;;22.20;87.80;;;;;;5072611;28;20115;-74
2021/06/04 07:26:14;;;;;;;3.40;3.10;;;22.30;86.70;;;;;;5069432;28;20037;-78
2021/06/04 07:28:40;;;;;;;2.97;2.72;;;22.30;86.90;;;;;;5070637;28;20034;-68
2021/06/04 07:31:11;;;;;;;4.22;2.97;;;22.50;86.40;;;;;;5067380;28;20032;-69
2021/06/04 07:33:43;;;;;;;3.55;2.92;;;22.60;85.00;;;;;;5071981;28;20052;-70
2021/06/04 07:36:15;;;;;;;5.22;3.53;;;22.60;85.00;;;;;;5071356;28;20033;-69
2021/06/04 07:38:40;;;;;;;3.75;3.03;;;22.70;82.70;;;;;;5072664;28;20029;-69
2021/06/04 07:41:07;;;;;;;6.25;3.33;;;22.80;82.00;;;;;;5070707;28;20527;-69
2021/06/04 07:43:38;;;;;;;5.93;3.17;;;22.80;80.10;;;;;;5072902;28;20033;-69
2021/06/04 07:46:07;;;;;;;7.80;2.80;;;22.90;80.50;;;;;;5070242;28;20032;-69
2021/06/04 07:48:33;;;;;;;4.72;3.55;;;23.00;79.50;;;;;;5072742;28;20040;-69
2021/06/04 07:50:59;;;;;;;5.20;3.50;;;23.10;80.50;;;;;;5071746;28;20051;-69
2021/06/04 07:53:28;;;;;;;4.43;3.30;;;23.30;76.10;;;;;;5072396;28;20043;-70
2021/06/04 07:55:54;;;;;;;4.05;3.05;;;23.50;74.50;;;;;;5071607;28;20056;-69
2021/06/04 07:58:20;;;;;;;3.00;2.70;;;23.40;74.30;;;;;;5071902;28;20086;-70
2021/06/04 08:01:12;;;;;;;6.55;2.90;;;23.50;74.50;;;;;;5072365;28;20037;-79
2021/06/04 08:04:06;;;;;;;4.75;3.03;;;23.60;74.60;;;;;;5052389;28;20052;-69
2021/06/04 08:06:40;;;;;;;3.50;2.95;;;23.80;73.40;;;;;;5058670;28;20043;-70
2021/06/04 08:09:07;;;;;;;3.20;2.72;;;23.90;72.10;;;;;;5069365;28;20040;-70
2021/06/04 08:11:39;;;;;;;3.50;2.47;;;24.00;72.30;;;;;;5072298;28;20043;-69
2021/06/04 08:14:08;;;;;;;5.13;3.13;;;24.10;73.20;;;;;;5071989;28;20655;-70
2021/06/04 08:16:37;;;;;;;3.70;2.65;;;24.20;71.80;;;;;;5072202;28;20032;-70
2021/06/04 08:19:04;;;;;;;7.10;3.22;;;24.30;72.00;;;;;;5071711;28;20039;-71
2021/06/04 08:21:37;;;;;;;5.47;2.80;;;24.40;71.60;;;;;;5072206;28;20028;-68
2021/06/04 08:24:04;;;;;;;6.20;2.70;;;24.50;70.70;;;;;;5053616;28;20024;-68
2021/06/04 08:26:32;;;;;;;7.45;2.70;;;24.60;69.60;;;;;;5070741;28;20497;-69
2021/06/04 08:28:58;;;;;;;9.27;3.55;;;24.70;69.30;;;;;;5071128;28;20028;-69
2021/06/04 08:31:24;;;;;;;5.93;2.92;;;24.80;70.00;;;;;;5071491;28;20029;-70
2021/06/04 08:33:51;;;;;;;4.80;2.85;;;24.90;68.90;;;;;;5070550;28;20139;-74
2021/06/04 08:36:22;;;;;;;4.72;2.80;;;24.90;69.10;;;;;;5071676;28;20037;-70
2021/06/04 08:38:47;;;;;;;6.53;2.70;;;25.10;67.50;;;;;;5064691;28;20031;-77
2021/06/04 08:41:23;;;;;;;4.85;2.90;;;25.10;67.80;;;;;;5071995;28;20103;-71
2021/06/04 08:44:01;;;;;;;5.72;3.22;;;25.10;68.30;;;;;;5066718;28;20036;-72
2021/06/04 08:46:33;;;;;;;6.55;3.40;;;25.20;69.10;;;;;;5060371;28;20029;-70
2021/06/04 08:49:11;;;;;;;7.00;3.40;;;25.30;68.60;;;;;;5046819;28;20029;-71
2021/06/04 08:52:12;;;;;;;5.53;3.08;;;25.40;67.40;;;;;;5073481;28;20077;-75
2021/06/04 08:55:15;;;;;;;7.60;3.20;;;25.50;67.40;;;;;;5090096;28;20100;-70
2021/06/04 08:57:55;;;;;;;5.82;3.22;;;25.50;66.20;;;;;;5083585;28;20469;-71
2021/06/04 09:00:52;;;;;;;4.38;2.97;;;25.50;66.70;;;;;;5076508;28;20024;-70
2021/06/04 09:03:30;;;;;;;9.18;3.60;;;25.40;67.60;;;;;;5067051;28;20115;-70
2021/06/04 09:06:23;;;;;;;4.90;3.30;;;25.50;67.40;;;;;;5084191;28;20110;-74
2021/06/04 09:08:49;;;;;;;8.50;3.38;;;25.50;67.60;;;;;;5087953;28;20032;-76
2021/06/04 09:11:37;;;;;;;5.10;3.22;;;25.60;67.60;;;;;;5091505;28;20433;-72
2021/06/04 09:14:05;;;;;;;4.97;2.97;;;25.80;66.30;;;;;;5084508;28;20036;-72
2021/06/04 09:16:56;;;;;;;9.27;3.17;;;25.80;67.50;;;;;;5085787;28;20419;-73
2021/06/04 09:19:27;;;;;;;5.93;3.20;;;25.80;65.20;;;;;;5090671;28;20032;-72
2021/06/04 09:21:53;;;;;;;7.10;3.08;;;25.70;64.80;;;;;;5087026;28;20078;-73
2021/06/04 09:24:28;;;;;;;4.78;3.20;;;25.70;65.40;;;;;;5092615;28;20055;-73
2021/06/04 09:26:53;;;;;;;4.72;2.92;;;25.80;65.30;;;;;;5094919;28;20028;-71
2021/06/04 09:29:26;;;;;;;4.25;2.78;;;26.00;64.20;;;;;;5083098;28;20141;-71
2021/06/04 09:31:55;;;;;;;4.13;2.53;;;26.20;64.60;;;;;;5090973;28;20020;-72
2021/06/04 09:34:26;;;;;;;4.07;2.80;;;26.30;64.20;;;;;;5091212;28;20430;-71
2021/06/04 09:37:05;;;;;;;6.95;3.30;;;26.40;64.20;;;;;;5090055;28;20282;-72
2021/06/04 09:39:36;;;;;;;7.65;3.20;;;26.50;63.90;;;;;;5090661;28;20032;-72
2021/06/04 09:42:22;;;;;;;5.35;2.85;;;26.60;63.90;;;;;;5083262;28;20031;-71
2021/06/04 09:45:08;;;;;;;5.18;3.03;;;26.60;64.10;;;;;;5086138;28;20081;-74
2021/06/04 09:47:41;;;;;;;3.72;2.63;;;26.70;64.00;;;;;;5077011;28;20039;-71
2021/06/04 09:50:41;;;;;;;3.72;2.58;;;26.70;63.40;;;;;;5088922;28;20032;-72
2021/06/04 09:53:18;;;;;;;4.68;3.03;;;26.80;62.40;;;;;;5090446;28;20044;-72
2021/06/04 09:55:46;;;;;;;5.97;2.20;;;26.80;63.70;;;;;;5090497;28;20362;-72
2021/06/04 09:58:28;;;;;;;4.90;3.17;;;26.90;63.00;;;;;;5090410;28;20035;-71
2021/06/04 10:01:00;;;;;;;7.10;2.78;;;26.90;63.20;;;;;;5089980;28;20090;-72
2021/06/04 10:03:41;;;;;;;4.43;3.03;;;26.80;64.20;;;;;;5090472;28;20036;-72
2021/06/04 10:06:06;;;;;;;4.43;2.97;;;26.80;63.80;;;;;;5083951;28;20110;-72
2021/06/04 10:08:55;;;;;;;11.05;3.25;;;26.80;64.20;;;;;;5090306;28;20023;-71
2021/06/04 10:11:27;;;;;;;5.13;2.90;;;26.70;63.80;;;;;;5091007;28;20481;-71
2021/06/04 10:14:20;;;;;;;7.07;2.80;;;26.70;66.10;;;;;;5091614;28;20080;-71
2021/06/04 10:19:28;;;;;;;4.72;2.40;;;27.00;63.60;;;;;;5090991;28;20032;-71
2021/06/04 10:22:12;;;;;;;7.50;3.20;;;27.10;63.60;;;;;;5089637;28;20035;-72
2021/06/04 10:24:48;;;;;;;11.70;2.95;;;27.40;63.60;;;;;;5086098;28;20033;-71
2021/06/04 10:27:31;;;;;;;3.53;2.92;;;27.70;63.10;;;;;;5089998;28;20044;-71
2021/06/04 10:29:58;;;;;;;3.85;2.25;;;27.90;60.40;;;;;;5094520;28;20047;-72
2021/06/04 10:32:31;;;;;;;6.20;2.92;;;27.90;61.00;;;;;;5094000;28;20056;-71
2021/06/04 10:35:07;;;;;;;5.50;2.83;;;28.00;61.40;;;;;;5093513;28;20032;-71
2021/06/04 10:37:49;;;;;;;3.67;2.20;;;28.10;60.80;;;;;;5091063;28;20024;-71
2021/06/04 10:40:21;;;;;;;5.25;2.97;;;28.10;61.00;;;;;;5087004;28;20042;-72
2021/06/04 10:43:12;;;;;;;4.45;2.95;;;28.00;61.20;;;;;;5094220;28;20035;-72
2021/06/04 10:45:42;;;;;;;5.57;2.40;;;27.90;61.20;;;;;;5088569;28;20036;-72
2021/06/04 10:48:27;;;;;;;5.93;2.65;;;27.70;61.00;;;;;;5093457;28;20058;-71
2021/06/04 10:51:21;;;;;;;2.90;2.55;;;27.50;60.70;;;;;;5090633;28;20057;-74
2021/06/04 10:54:02;;;;;;;7.47;2.70;;;27.30;61.30;;;;;;5065676;28;20032;-71
2021/06/04 10:56:47;;;;;;;4.20;2.40;;;27.00;61.80;;;;;;5072437;28;20064;-70
2021/06/04 10:59:34;;;;;;;5.22;2.70;;;26.70;62.70;;;;;;5072413;28;20032;-70
2021/06/04 11:02:16;;;;;;;4.95;2.58;;;26.50;62.00;;;;;;5071914;28;20036;-71
2021/06/04 11:05:19;;;;;;;9.15;3.88;;;26.20;63.30;;;;;;5073090;28;20032;-71
2021/06/04 11:08:06;;;;;;;4.65;2.63;;;26.00;66.50;;;;;;5064830;28;20443;-71
2021/06/04 11:10:57;;;;;;;5.70;2.83;;;25.60;67.40;;;;;;5065324;28;20469;-71
2021/06/04 11:13:58;;;;;;;7.10;2.75;;;25.20;69.40;;;;;;5069852;28;20549;-71
2021/06/04 11:16:40;;;;;;;8.60;3.08;;;24.70;73.00;;;;;;5052751;28;20036;-71
2021/06/04 11:19:19;;;;;;;8.07;3.13;;;24.50;73.10;;;;;;5061264;28;20036;-71
2021/06/04 11:21:56;;;;;;;4.43;2.87;;;24.30;73.80;;;;;;5065787;28;20033;-71
2021/06/04 11:24:49;;;;;;;6.93;3.33;;;24.10;74.90;;;;;;5063098;28;20028;-71
2021/06/04 11:27:34;;;;;;;5.95;3.42;;;23.90;80.90;;;;;;5070571;28;20053;-71
2021/06/04 11:30:01;;;;;;;6.05;3.17;;;23.60;85.60;;;;;;5072262;28;20386;-71
2021/06/04 11:32:49;;;;;;;10.40;3.40;;;23.40;90.70;;;;;;5072555;28;20043;-71
2021/06/04 11:35:24;;;;;;;5.55;3.10;;;23.00;93.50;;;;;;5065902;28;20025;-71
2021/06/04 11:38:02;;;;;;;6.93;3.40;;;22.60;97.70;;;;;;5069599;28;20039;-71
2021/06/04 11:40:32;;;;;;;7.75;3.83;;;22.20;99.90;;;;;;5072329;28;20500;-71
2021/06/04 11:43:13;;;;;;;9.35;4.30;;;21.90;99.90;;;;;;5072143;28;20531;-71
2021/06/04 11:45:41;;;;;;;9.68;4.45;;;21.60;99.90;;;;;;5067930;28;20099;-72
2021/06/04 11:48:28;;;;;;;7.80;4.82;;;21.50;99.90;;;;;;5068418;28;20043;-72
2021/06/04 11:51:19;;;;;;;9.98;4.15;;;21.50;99.90;;;;;;5071707;28;20674;-75
2021/06/04 11:53:50;;;;;;;6.95;4.00;;;21.60;99.90;;;;;;5060567;28;20048;-73
2021/06/04 11:56:38;;;;;;;5.82;4.00;;;21.60;99.90;;;;;;5067171;28;20029;-72
2021/06/04 11:59:11;;;;;;;7.68;4.13;;;21.60;99.90;;;;;;5071134;28;20054;-73
2021/06/04 12:01:45;;;;;;;7.68;4.05;;;21.60;99.90;;;;;;5064695;28;20021;-72
2021/06/04 12:04:20;;;;;;;5.75;4.05;;;21.70;99.40;;;;;;5071311;28;20044;-73
2021/06/04 12:06:58;;;;;;;5.15;3.20;;;21.70;99.30;;;;;;5064017;28;20438;-72
2021/06/04 12:09:33;;;;;;;4.40;3.25;;;21.80;98.50;;;;;;5067682;28;20024;-73
2021/06/04 12:12:29;;;;;;;6.18;3.75;;;21.90;99.90;;;;;;5071051;28;20036;-72
2021/06/04 12:14:55;;;;;;;9.60;4.13;;;22.10;99.90;;;;;;5048751;28;20048;-75
2021/06/04 12:17:50;;;;;;;5.65;3.20;;;22.20;97.50;;;;;;5071877;28;20039;-70
2021/06/04 12:20:26;;;;;;;4.55;3.60;;;22.30;97.60;;;;;;5049501;28;20036;-70
2021/06/04 12:23:04;;;;;;;9.20;3.10;;;22.50;94.90;;;;;;5071945;28;20486;-75
2021/06/04 12:25:41;;;;;;;8.70;3.78;;;22.50;95.50;;;;;;5071121;28;20119;-70
2021/06/04 12:28:18;;;;;;;5.28;3.22;;;22.50;95.40;;;;;;5061996;28;20040;-71
2021/06/04 12:30:47;;;;;;;10.02;4.13;;;22.50;95.60;;;;;;5071806;28;20052;-72
2021/06/04 12:33:35;;;;;;;5.57;3.20;;;22.40;96.80;;;;;;5070887;28;20036;-72
2021/06/04 12:36:03;;;;;;;8.57;3.67;;;22.30;96.10;;;;;;5066923;28;20473;-73
2021/06/04 12:38:36;;;;;;;9.13;3.15;;;22.30;95.90;;;;;;5066880;28;20033;-72
2021/06/04 12:41:06;;;;;;;7.28;2.70;;;22.30;93.90;;;;;;5053173;28;20479;-68
2021/06/04 12:43:33;;;;;;;8.17;3.60;;;22.10;88.40;;;;;;5053623;28;20028;-68
2021/06/04 12:46:02;;;;;;;10.77;3.88;;;21.80;91.40;;;;;;5067483;28;20025;-68
2021/06/04 12:48:40;;;;;;;11.02;4.20;;;21.00;96.20;;;;;;5071456;28;20103;-68
2021/06/04 12:51:16;;;;;;;5.93;3.17;;;20.00;99.90;;;;;;5069121;28;20036;-70
2021/06/04 12:53:49;;;;;;;7.03;3.58;;;19.20;99.90;;;;;;5071331;28;20078;-69
2021/06/04 12:56:22;;;;;;;11.77;5.47;;;18.70;99.90;;;;;;5070381;28;20039;-67
2021/06/04 12:59:08;;;;;;;10.00;6.30;;;18.50;99.90;;;;;;5070676;28;20024;-67
2021/06/04 13:01:58;;;;;;;12.85;6.13;;;18.40;99.90;;;;;;5052697;28;20032;-70
2021/06/04 13:04:29;;;;;;;12.75;6.80;;;18.40;99.90;;;;;;5070395;28;20040;-69
2021/06/04 13:06:55;;;;;;;;;;;18.40;99.90;;;;;;5064597;28;20024;-70
2021/06/04 13:09:38;;;;;;;17.35;6.60;;;18.50;99.90;;;;;;5071206;28;20403;-68
2021/06/04 13:12:19;;;;;;;8.57;6.20;;;18.60;99.90;;;;;;5070509;28;20033;-68
2021/06/04 13:14:47;;;;;;;12.15;6.55;;;18.80;99.90;;;;;;5070447;28;20033;-68
2021/06/04 13:17:16;;;;;;;11.98;5.95;;;18.90;99.90;;;;;;5066930;28;20118;-67
2021/06/04 13:19:43;;;;;;;8.70;5.70;;;19.10;99.90;;;;;;5066121;28;20039;-68
2021/06/04 13:22:18;;;;;;;6.43;5.38;;;19.40;99.90;;;;;;5070382;28;20064;-68
2021/06/04 13:24:46;;;;;;;11.20;5.72;;;19.70;99.90;;;;;;5060006;28;20078;-68
2021/06/04 13:27:22;;;;;;;12.57;4.97;;;20.10;99.90;;;;;;5072065;28;20465;-68
2021/06/04 13:29:54;;;;;;;9.38;5.15;;;20.30;99.90;;;;;;5071968;28;20020;-68
2021/06/04 13:32:33;;;;;;;8.55;5.50;;;20.40;99.90;;;;;;5069917;28;20100;-69